createdAt,value
2023-05-20T00:01:27.146Z,92.91
2023-05-20T00:03:55.649Z,93.61
2023-05-20T00:06:24.185Z,95.60
2023-05-20T00:08:53.834Z,95.87
2023-05-20T00:11:22.181Z,95.18
2023-05-20T00:13:50.704Z,95.66
2023-05-20T00:16:19.138Z,94.18
2023-05-20T00:18:47.500Z,95.79
2023-05-20T00:21:15.804Z,94.97
2023-05-20T00:23:44.209Z,99.59
2023-05-20T00:26:13.928Z,99.47
2023-05-20T00:28:42.414Z,100.00
2023-05-20T00:31:10.888Z,96.73
2023-05-20T00:33:39.261Z,95.73
2023-05-20T00:36:08.026Z,99.06
2023-05-20T00:38:36.427Z,97.75
2023-05-20T00:41:04.876Z,99.82
2023-05-20T00:43:34.574Z,100.00
2023-05-20T00:46:03.527Z,100.00
2023-05-20T00:48:38.964Z,100.00
2023-05-20T00:51:07.896Z,100.00
2023-05-20T00:53:37.528Z,100.00
2023-05-20T00:56:06.850Z,100.00
2023-05-20T00:58:38.185Z,100.00
2023-05-20T01:01:07.333Z,100.00
2023-05-20T01:03:36.104Z,100.00
2023-05-20T01:06:04.581Z,100.00
2023-05-20T01:08:34.392Z,100.00
2023-05-20T01:11:07.917Z,100.00
2023-05-20T01:13:44.535Z,100.00
2023-05-20T01:16:16.519Z,100.00
2023-05-20T01:18:45.884Z,100.00
2023-05-20T01:21:16.767Z,100.00
2023-05-20T01:23:46.550Z,100.00
2023-05-20T01:26:15.028Z,100.00
2023-05-20T01:28:44.847Z,100.00
2023-05-20T01:31:20.281Z,100.00
2023-05-20T01:33:53.155Z,100.00
2023-05-20T01:36:22.779Z,100.00
2023-05-20T01:38:52.973Z,100.00
2023-05-20T01:41:22.484Z,100.00
2023-05-20T01:43:51.281Z,100.00
2023-05-20T01:46:19.639Z,100.00
2023-05-20T01:48:47.990Z,100.00
2023-05-20T01:51:16.946Z,100.00
2023-05-20T01:53:45.248Z,100.00
2023-05-20T01:56:14.959Z,100.00
2023-05-20T01:58:43.214Z,100.00
2023-05-20T02:01:11.560Z,100.00
2023-05-20T02:03:40.017Z,100.00
2023-05-20T02:06:08.402Z,100.00
2023-05-20T02:08:36.804Z,100.00
2023-05-20T02:11:05.255Z,100.00
2023-05-20T02:13:35.093Z,100.00
2023-05-20T02:16:03.484Z,100.00
2023-05-20T02:18:32.883Z,100.00
2023-05-20T02:21:04.108Z,100.00
2023-05-20T02:23:32.916Z,100.00
2023-05-20T02:26:01.859Z,100.00
2023-05-20T02:28:30.150Z,100.00
2023-05-20T02:30:59.780Z,100.00
2023-05-20T02:33:29.318Z,100.00
2023-05-20T02:35:57.931Z,100.00
2023-05-20T02:38:26.745Z,100.00
2023-05-20T02:40:55.141Z,100.00
2023-05-20T02:43:23.471Z,100.00
2023-05-20T02:45:51.801Z,100.00
2023-05-20T02:48:21.524Z,100.00
2023-05-20T02:50:49.886Z,100.00
2023-05-20T02:53:18.274Z,100.00
2023-05-20T02:55:49.104Z,100.00
2023-05-20T02:58:17.710Z,100.00
2023-05-20T03:00:46.137Z,100.00
2023-05-20T03:03:15.213Z,100.00
2023-05-20T03:05:46.194Z,100.00
2023-05-20T03:08:15.282Z,100.00
2023-05-20T03:10:43.601Z,100.00
2023-05-20T03:13:12.095Z,100.00
2023-05-20T03:15:40.760Z,100.00
2023-05-20T03:18:09.930Z,100.00
2023-05-20T03:20:38.515Z,100.00
2023-05-20T03:23:08.688Z,100.00
2023-05-20T03:25:37.747Z,100.00
2023-05-20T03:28:07.112Z,100.00
2023-05-20T03:30:35.471Z,100.00
2023-05-20T03:33:06.120Z,100.00
2023-05-20T03:35:34.764Z,100.00
2023-05-20T03:38:03.137Z,100.00
2023-05-20T03:40:32.916Z,100.00
2023-05-20T03:43:01.330Z,100.00
2023-05-20T03:45:29.617Z,100.00
2023-05-20T03:47:58.027Z,100.00
2023-05-20T03:50:26.315Z,100.00
2023-05-20T03:52:54.597Z,100.00
2023-05-20T03:55:22.947Z,100.00
2023-05-20T03:57:52.756Z,100.00
2023-05-20T04:00:21.107Z,100.00
2023-05-20T04:02:49.501Z,100.00
2023-05-20T04:05:17.925Z,100.00
2023-05-20T04:07:46.509Z,100.00
2023-05-20T04:10:14.957Z,100.00
2023-05-20T04:12:43.760Z,100.00
2023-05-20T04:15:15.182Z,100.00
2023-05-20T04:17:43.871Z,100.00
2023-05-20T04:20:13.191Z,100.00
2023-05-20T04:22:41.623Z,100.00
2023-05-20T04:25:10.416Z,100.00
2023-05-20T04:27:39.869Z,100.00
2023-05-20T04:30:10.016Z,100.00
2023-05-20T04:32:39.859Z,100.00
2023-05-20T04:35:12.122Z,100.00
2023-05-20T04:37:42.483Z,100.00
2023-05-20T04:40:12.729Z,100.00
2023-05-20T04:42:41.034Z,100.00
2023-05-20T04:45:10.078Z,100.00
2023-05-20T04:47:40.139Z,100.00
2023-05-20T04:50:10.925Z,100.00
2023-05-20T04:52:39.875Z,100.00
2023-05-20T04:55:09.945Z,100.00
2023-05-20T04:57:39.768Z,100.00
2023-05-20T05:00:09.808Z,100.00
2023-05-20T05:02:40.054Z,100.00
2023-05-20T05:05:09.304Z,100.00
2023-05-20T05:07:37.683Z,100.00
2023-05-20T05:10:06.791Z,100.00
2023-05-20T05:12:35.066Z,100.00
2023-05-20T05:15:03.475Z,100.00
2023-05-20T05:17:31.850Z,100.00
2023-05-20T05:20:01.532Z,100.00
2023-05-20T05:22:29.896Z,100.00
2023-05-20T05:24:59.090Z,100.00
2023-05-20T05:27:27.414Z,100.00
2023-05-20T05:29:55.959Z,100.00
2023-05-20T05:32:24.311Z,100.00
2023-05-20T05:34:52.657Z,100.00
2023-05-20T05:37:22.506Z,100.00
2023-05-20T05:39:50.858Z,100.00
2023-05-20T05:42:19.103Z,100.00
2023-05-20T05:44:47.740Z,100.00
2023-05-20T05:47:16.139Z,100.00
2023-05-20T05:49:44.463Z,100.00
2023-05-20T05:52:12.802Z,100.00
2023-05-20T05:54:42.599Z,96.28
2023-05-20T05:57:12.222Z,91.86
2023-05-20T05:59:40.697Z,90.25
2023-05-20T06:02:10.471Z,90.77
2023-05-20T06:04:38.869Z,94.33
2023-05-20T06:07:07.125Z,96.26
2023-05-20T06:09:35.650Z,95.97
2023-05-20T06:12:06.093Z,94.13
2023-05-20T06:14:34.553Z,92.46
2023-05-20T06:17:03.121Z,91.17
2023-05-20T06:19:31.575Z,88.15
2023-05-20T06:22:00.054Z,84.04
2023-05-20T06:24:28.302Z,82.89
2023-05-20T06:26:56.572Z,82.11
2023-05-20T06:29:26.542Z,77.91
2023-05-20T06:31:54.802Z,78.82
2023-05-20T06:34:23.090Z,77.14
2023-05-20T06:36:51.359Z,75.18
2023-05-20T06:39:19.653Z,74.15
2023-05-20T06:41:48.023Z,73.98
2023-05-20T06:44:16.293Z,73.83
2023-05-20T06:46:46.267Z,70.07
2023-05-20T06:49:14.868Z,71.12
2023-05-20T06:51:44.340Z,68.72
2023-05-20T06:54:12.638Z,65.98
2023-05-20T06:56:40.990Z,65.40
2023-05-20T06:59:09.354Z,64.24
2023-05-20T07:01:37.771Z,62.91
2023-05-20T07:04:07.762Z,61.77
2023-05-20T07:06:36.367Z,60.17
2023-05-20T07:09:05.625Z,59.65
2023-05-20T07:11:33.931Z,59.52
2023-05-20T07:14:02.187Z,59.92
2023-05-20T07:16:32.616Z,62.04
2023-05-20T07:19:00.860Z,59.68
2023-05-20T07:21:30.508Z,61.78
2023-05-20T07:23:58.967Z,64.55
2023-05-20T07:26:27.251Z,62.76
2023-05-20T07:28:55.561Z,64.21
2023-05-20T07:31:24.441Z,64.23
2023-05-20T07:33:52.701Z,64.38
2023-05-20T07:36:21.096Z,62.13
2023-05-20T07:39:01.910Z,61.57
2023-05-20T07:41:32.616Z,61.37
2023-05-20T07:44:01.063Z,62.04
2023-05-20T07:46:29.453Z,60.61
2023-05-20T07:48:57.903Z,57.63
2023-05-20T07:51:26.334Z,58.97
2023-05-20T07:53:56.292Z,56.93
2023-05-20T07:56:24.655Z,59.61
2023-05-20T07:58:58.445Z,58.80
2023-05-20T08:01:27.355Z,54.93
2023-05-20T08:03:55.941Z,54.85
2023-05-20T08:06:27.952Z,53.98
2023-05-20T08:08:59.286Z,56.15
2023-05-20T08:11:27.656Z,53.56
2023-05-20T08:13:58.570Z,55.95
2023-05-20T08:16:26.951Z,55.81
2023-05-20T08:18:55.423Z,56.81
2023-05-20T08:21:23.807Z,58.55
2023-05-20T08:23:52.174Z,56.10
2023-05-20T08:26:22.164Z,56.93
2023-05-20T08:28:50.673Z,55.59
2023-05-20T08:31:19.213Z,56.55
2023-05-20T08:33:47.674Z,56.04
2023-05-20T08:36:16.231Z,56.62
2023-05-20T08:38:44.636Z,55.72
2023-05-20T08:41:12.970Z,53.80
2023-05-20T08:43:43.275Z,53.57
2023-05-20T08:46:11.922Z,53.98
2023-05-20T08:48:41.274Z,51.11
2023-05-20T08:51:11.555Z,49.98
2023-05-20T08:53:39.868Z,48.92
2023-05-20T08:56:09.614Z,48.77
2023-05-20T08:58:38.060Z,48.30
2023-05-20T09:01:08.513Z,50.18
2023-05-20T09:03:36.814Z,50.41
2023-05-20T09:06:06.696Z,51.75
2023-05-20T09:08:35.526Z,48.92
2023-05-20T09:11:04.090Z,48.28
2023-05-20T09:13:34.247Z,46.80
2023-05-20T09:16:03.009Z,48.92
2023-05-20T09:18:33.148Z,49.10
2023-05-20T09:21:07.146Z,48.29
2023-05-20T09:23:38.433Z,48.25
2023-05-20T09:26:07.010Z,49.81
2023-05-20T09:28:38.481Z,50.48
2023-05-20T09:31:07.314Z,50.96
2023-05-20T09:33:38.658Z,48.31
2023-05-20T09:36:09.851Z,48.58
2023-05-20T09:38:39.954Z,48.97
2023-05-20T09:41:09.629Z,47.36
2023-05-20T09:43:38.225Z,47.56
2023-05-20T09:46:06.904Z,46.89
2023-05-20T09:48:37.682Z,47.88
2023-05-20T09:51:07.393Z,45.25
2023-05-20T09:53:36.028Z,45.54
2023-05-20T09:56:04.932Z,44.90
2023-05-20T09:58:35.355Z,44.75
2023-05-20T10:01:03.835Z,44.35
2023-05-20T10:03:33.605Z,43.63
2023-05-20T10:06:41.864Z,43.67
2023-05-20T10:09:26.198Z,42.21
2023-05-20T10:12:04.124Z,41.34
2023-05-20T10:14:45.294Z,40.29
2023-05-20T10:17:22.920Z,42.65
2023-05-20T10:19:51.863Z,41.30
2023-05-20T10:22:30.226Z,38.67
2023-05-20T10:25:02.620Z,39.07
2023-05-20T10:27:31.075Z,39.62
2023-05-20T10:29:59.511Z,39.15
2023-05-20T10:32:29.261Z,39.01
2023-05-20T10:35:02.180Z,39.03
2023-05-20T10:37:34.095Z,39.10
2023-05-20T10:40:08.769Z,39.12
2023-05-20T10:42:37.224Z,39.59
2023-05-20T10:45:06.628Z,38.96
2023-05-20T10:47:35.337Z,39.58
2023-05-20T10:50:05.080Z,38.46
2023-05-20T10:52:38.364Z,41.37
2023-05-20T10:55:07.726Z,38.58
2023-05-20T10:57:36.580Z,37.86
2023-05-20T11:00:06.883Z,39.39
2023-05-20T11:02:36.014Z,39.01
2023-05-20T11:05:06.700Z,39.42
2023-05-20T11:07:36.470Z,38.95
2023-05-20T11:10:10.139Z,37.07
2023-05-20T11:12:38.679Z,35.76
2023-05-20T11:15:08.285Z,33.78
2023-05-20T11:17:36.745Z,32.42
2023-05-20T11:20:05.687Z,31.14
2023-05-20T11:22:35.434Z,29.96
2023-05-20T11:25:07.488Z,30.28
2023-05-20T11:27:35.922Z,29.60
2023-05-20T11:30:06.024Z,30.27
2023-05-20T11:32:34.339Z,31.33
2023-05-20T11:35:02.722Z,34.05
2023-05-20T11:37:31.390Z,34.31
2023-05-20T11:40:09.726Z,33.47
2023-05-20T11:42:39.042Z,32.46
2023-05-20T11:45:08.429Z,33.98
2023-05-20T11:47:36.811Z,35.76
2023-05-20T11:50:05.342Z,35.80
2023-05-20T11:52:35.230Z,35.11
2023-05-20T11:55:03.716Z,35.39
2023-05-20T11:57:33.944Z,35.64
2023-05-20T12:00:02.410Z,36.82
2023-05-20T12:02:30.800Z,38.47
2023-05-20T12:04:59.550Z,38.80
2023-05-20T12:07:28.701Z,38.20
2023-05-20T12:09:57.073Z,38.41
2023-05-20T12:12:25.760Z,38.19
2023-05-20T12:14:55.815Z,38.02
2023-05-20T12:17:24.247Z,36.83
2023-05-20T12:19:52.708Z,36.75
2023-05-20T12:22:21.046Z,34.08
2023-05-20T12:24:53.640Z,34.13
2023-05-20T12:27:23.935Z,32.07
2023-05-20T12:29:52.174Z,32.12
2023-05-20T12:32:22.058Z,31.45
2023-05-20T12:34:50.474Z,33.67
2023-05-20T12:37:18.855Z,35.66
2023-05-20T12:39:47.106Z,34.41
2023-05-20T12:42:15.531Z,36.10
2023-05-20T12:44:43.879Z,35.87
2023-05-20T12:47:12.380Z,36.68
2023-05-20T12:49:42.102Z,34.80
2023-05-20T12:52:18.902Z,35.41
2023-05-20T12:54:50.597Z,36.27
2023-05-20T12:57:19.884Z,35.98
2023-05-20T12:59:48.210Z,36.06
2023-05-20T13:02:16.634Z,37.33
2023-05-20T13:04:46.395Z,38.16
2023-05-20T13:07:14.731Z,39.44
2023-05-20T13:09:43.157Z,39.17
2023-05-20T13:12:11.688Z,37.67
2023-05-20T13:14:40.059Z,38.90
2023-05-20T13:17:08.560Z,39.06
2023-05-20T13:19:38.010Z,40.37
2023-05-20T13:22:09.254Z,40.73
2023-05-20T13:24:38.351Z,41.64
2023-05-20T13:27:07.050Z,42.63
2023-05-20T13:29:35.387Z,41.28
2023-05-20T13:32:05.010Z,43.02
2023-05-20T13:34:33.335Z,42.79
2023-05-20T13:37:01.684Z,42.13
2023-05-20T13:39:31.354Z,42.95
2023-05-20T13:42:00.067Z,43.37
2023-05-20T13:44:29.063Z,42.80
2023-05-20T13:46:58.530Z,43.05
2023-05-20T13:49:26.939Z,42.68
2023-05-20T13:51:55.252Z,43.17
2023-05-20T13:54:23.589Z,43.08
2023-05-20T13:56:54.720Z,43.36
2023-05-20T13:59:23.105Z,43.72
2023-05-20T14:01:51.513Z,43.21
2023-05-20T14:04:19.804Z,43.22
2023-05-20T14:06:48.151Z,44.10
2023-05-20T14:09:16.541Z,43.66
2023-05-20T14:11:45.034Z,44.27
2023-05-20T14:14:14.815Z,45.00
2023-05-20T14:16:43.447Z,44.76
2023-05-20T14:19:11.822Z,43.46
2023-05-20T14:21:40.100Z,42.47
2023-05-20T14:24:08.529Z,42.34
2023-05-20T14:26:36.929Z,42.64
2023-05-20T14:29:05.356Z,42.89
2023-05-20T14:31:35.067Z,42.70
2023-05-20T14:34:03.372Z,44.23
2023-05-20T14:36:32.227Z,44.11
2023-05-20T14:39:00.543Z,43.51
2023-05-20T14:41:29.107Z,43.78
2023-05-20T14:43:57.462Z,44.42
2023-05-20T14:46:25.965Z,44.08
2023-05-20T14:48:55.913Z,44.87
2023-05-20T14:51:24.292Z,44.69
2023-05-20T14:53:52.672Z,44.26
2023-05-20T14:56:21.115Z,45.10
2023-05-20T14:58:49.389Z,45.02
2023-05-20T15:01:17.762Z,44.91
2023-05-20T15:03:46.210Z,45.61
2023-05-20T15:06:16.009Z,45.24
2023-05-20T15:08:44.426Z,45.59
2023-05-20T15:11:12.820Z,46.14
2023-05-20T15:13:41.108Z,45.37
2023-05-20T15:16:09.817Z,45.47
2023-05-20T15:18:38.185Z,45.38
2023-05-20T15:21:06.834Z,45.11
2023-05-20T15:23:36.516Z,44.69
2023-05-20T15:26:05.352Z,46.09
2023-05-20T15:28:33.914Z,47.37
2023-05-20T15:31:02.236Z,47.43
2023-05-20T15:33:30.707Z,47.63
2023-05-20T15:35:59.195Z,47.39
2023-05-20T15:38:27.430Z,47.93
2023-05-20T15:40:57.415Z,47.12
2023-05-20T15:43:25.972Z,47.72
2023-05-20T15:45:54.855Z,48.62
2023-05-20T15:48:23.939Z,48.74
2023-05-20T15:50:52.201Z,48.40
2023-05-20T15:53:20.635Z,47.46
2023-05-20T15:55:49.073Z,49.37
2023-05-20T15:58:18.782Z,50.14
2023-05-20T16:00:47.121Z,49.60
2023-05-20T16:03:16.626Z,50.36
2023-05-20T16:05:45.077Z,50.77
2023-05-20T16:08:13.311Z,50.86
2023-05-20T16:10:41.742Z,51.01
2023-05-20T16:13:10.138Z,51.07
2023-05-20T16:15:39.927Z,51.14
2023-05-20T16:18:08.245Z,52.16
2023-05-20T16:20:36.675Z,53.06
2023-05-20T16:23:05.400Z,52.42
2023-05-20T16:25:33.759Z,53.14
2023-05-20T16:28:02.248Z,53.61
2023-05-20T16:30:30.667Z,52.67
2023-05-20T16:33:00.481Z,52.91
2023-05-20T16:35:28.890Z,52.96
2023-05-20T16:37:57.257Z,53.64
2023-05-20T16:40:25.658Z,53.51
2023-05-20T16:42:54.183Z,54.28
2023-05-20T16:45:22.624Z,55.01
2023-05-20T16:47:51.031Z,54.35
2023-05-20T16:50:20.807Z,55.23
2023-05-20T16:52:49.149Z,53.46
2023-05-20T16:55:17.699Z,54.74
2023-05-20T16:57:47.465Z,54.38
2023-05-20T17:00:16.542Z,53.91
2023-05-20T17:02:44.909Z,53.80
2023-05-20T17:05:14.643Z,52.96
2023-05-20T17:07:48.949Z,52.41
2023-05-20T17:10:17.266Z,52.12
2023-05-20T17:12:45.781Z,52.27
2023-05-20T17:15:14.048Z,51.86
2023-05-20T17:17:42.329Z,51.14
2023-05-20T17:20:11.628Z,51.73
2023-05-20T17:22:39.881Z,52.70
2023-05-20T17:25:10.696Z,52.03
2023-05-20T17:27:39.081Z,51.64
2023-05-20T17:30:08.730Z,52.08
2023-05-20T17:32:38.679Z,53.18
2023-05-20T17:35:08.005Z,54.65
2023-05-20T17:37:36.977Z,54.91
2023-05-20T17:40:07.014Z,55.57
2023-05-20T17:42:36.841Z,55.60
2023-05-20T17:45:05.853Z,56.25
2023-05-20T17:47:34.253Z,56.60
2023-05-20T17:50:02.883Z,57.58
2023-05-20T17:52:31.217Z,56.86
2023-05-20T17:54:59.440Z,57.04
2023-05-20T17:57:28.348Z,57.30
2023-05-20T17:59:58.049Z,56.00
2023-05-20T18:02:26.568Z,57.09
2023-05-20T18:04:54.972Z,57.37
2023-05-20T18:07:23.464Z,58.65
2023-05-20T18:09:51.786Z,61.61
2023-05-20T18:12:20.148Z,59.96
2023-05-20T18:14:48.541Z,59.76
2023-05-20T18:17:18.282Z,60.14
2023-05-20T18:19:46.708Z,62.65
2023-05-20T18:22:15.081Z,61.44
2023-05-20T18:24:43.482Z,63.25
2023-05-20T18:27:11.876Z,63.95
2023-05-20T18:29:40.182Z,61.63
2023-05-20T18:32:09.614Z,62.36
2023-05-20T18:34:39.470Z,63.18
2023-05-20T18:37:07.738Z,63.87
2023-05-20T18:39:36.130Z,64.81
2023-05-20T18:42:04.378Z,67.28
2023-05-20T18:44:32.642Z,64.82
2023-05-20T18:47:01.188Z,64.11
2023-05-20T18:49:29.537Z,64.75
2023-05-20T18:51:59.259Z,64.19
2023-05-20T18:54:27.675Z,64.11
2023-05-20T18:56:56.270Z,63.41
2023-05-20T18:59:25.270Z,63.12
2023-05-20T19:01:53.766Z,63.87
2023-05-20T19:04:22.082Z,63.69
2023-05-20T19:06:50.562Z,62.70
2023-05-20T19:09:20.296Z,63.17
2023-05-20T19:11:48.663Z,62.65
2023-05-20T19:14:16.951Z,62.17
2023-05-20T19:16:45.484Z,62.05
2023-05-20T19:19:14.786Z,63.31
2023-05-20T19:21:44.342Z,63.14
2023-05-20T19:24:17.935Z,61.97
2023-05-20T19:26:47.638Z,67.60
2023-05-20T19:29:16.146Z,61.98
2023-05-20T19:31:44.915Z,61.96
2023-05-20T19:34:13.251Z,62.01
2023-05-20T19:36:43.038Z,62.90
2023-05-20T19:39:11.626Z,62.69
2023-05-20T19:41:40.267Z,61.95
2023-05-20T19:44:10.658Z,63.58
2023-05-20T19:46:39.148Z,62.35
2023-05-20T19:49:07.549Z,62.63
2023-05-20T19:51:36.039Z,64.63
2023-05-20T19:54:04.399Z,62.28
2023-05-20T19:56:32.761Z,62.30
2023-05-20T19:59:01.950Z,62.00
2023-05-20T20:01:32.228Z,62.78
2023-05-20T20:04:00.725Z,62.00
2023-05-20T20:06:28.948Z,64.12
2023-05-20T20:08:57.279Z,62.97
2023-05-20T20:11:26.897Z,62.80
2023-05-20T20:13:55.194Z,61.57
2023-05-20T20:16:23.595Z,61.44
2023-05-20T20:18:53.408Z,62.20
2023-05-20T20:21:22.058Z,62.93
2023-05-20T20:23:50.426Z,63.42
2023-05-20T20:26:18.742Z,64.28
2023-05-20T20:28:47.151Z,63.73
2023-05-20T20:31:15.449Z,63.33
2023-05-20T20:33:43.827Z,64.24
2023-05-20T20:36:13.591Z,64.91
2023-05-20T20:38:47.255Z,63.20
2023-05-20T20:41:16.957Z,63.69
2023-05-20T20:43:46.146Z,64.42
2023-05-20T20:46:15.608Z,64.35
2023-05-20T20:48:46.016Z,64.17
2023-05-20T20:51:16.639Z,65.31
2023-05-20T20:53:46.532Z,64.37
2023-05-20T20:56:14.888Z,64.20
2023-05-20T20:58:45.175Z,64.42
2023-05-20T21:01:17.409Z,63.78
2023-05-20T21:03:46.007Z,63.59
2023-05-20T21:06:18.899Z,65.74
2023-05-20T21:08:48.106Z,63.82
2023-05-20T21:11:17.941Z,63.55
2023-05-20T21:13:46.304Z,64.16
2023-05-20T21:16:14.716Z,64.71
2023-05-20T21:18:43.064Z,65.76
2023-05-20T21:21:14.076Z,64.95
2023-05-20T21:23:43.842Z,66.89
2023-05-20T21:26:12.135Z,65.87
2023-05-20T21:28:40.518Z,65.84
2023-05-20T21:31:08.838Z,66.86
2023-05-20T21:33:37.215Z,67.29
2023-05-20T21:36:06.254Z,66.71
2023-05-20T21:38:34.547Z,71.21
2023-05-20T21:41:04.314Z,66.70
2023-05-20T21:43:32.745Z,66.85
2023-05-20T21:46:01.068Z,68.17
2023-05-20T21:48:29.536Z,66.85
2023-05-20T21:50:57.896Z,66.92
2023-05-20T21:53:26.145Z,70.47
2023-05-20T21:55:54.467Z,69.21
2023-05-20T21:58:24.172Z,66.75
2023-05-20T22:00:52.412Z,66.47
2023-05-20T22:03:22.107Z,67.35
2023-05-20T22:05:50.591Z,66.25
2023-05-20T22:08:19.112Z,66.61
2023-05-20T22:10:48.464Z,66.69
2023-05-20T22:13:17.378Z,67.53
2023-05-20T22:15:47.113Z,66.33
2023-05-20T22:18:15.749Z,69.77
2023-05-20T22:20:44.083Z,66.41
2023-05-20T22:23:12.399Z,69.04
2023-05-20T22:25:40.981Z,68.73
2023-05-20T22:28:09.616Z,68.43
2023-05-20T22:30:38.463Z,69.23
2023-05-20T22:33:08.204Z,69.04
2023-05-20T22:35:36.767Z,70.75
2023-05-20T22:38:05.223Z,69.37
2023-05-20T22:40:33.704Z,74.60
2023-05-20T22:43:01.929Z,68.22
2023-05-20T22:45:30.241Z,68.04
2023-05-20T22:47:58.570Z,68.77
2023-05-20T22:50:28.296Z,78.33
2023-05-20T22:52:56.609Z,69.09
2023-05-20T22:55:25.209Z,70.76
2023-05-20T22:57:54.293Z,70.03
2023-05-20T23:00:23.486Z,68.75
2023-05-20T23:02:52.596Z,68.16
2023-05-20T23:05:21.207Z,68.20
2023-05-20T23:07:53.296Z,68.76
2023-05-20T23:10:22.027Z,67.99
2023-05-20T23:12:50.318Z,67.77
2023-05-20T23:15:19.391Z,68.60
2023-05-20T23:17:49.424Z,69.05
2023-05-20T23:20:19.313Z,68.55
2023-05-20T23:22:48.226Z,69.13
2023-05-20T23:25:17.996Z,69.06
2023-05-20T23:27:46.332Z,68.12
2023-05-20T23:30:14.771Z,68.60
2023-05-20T23:32:43.691Z,69.48
2023-05-20T23:35:13.444Z,70.61
2023-05-20T23:37:43.011Z,69.40
2023-05-20T23:40:11.836Z,69.30
2023-05-20T23:42:41.691Z,69.83
2023-05-20T23:45:11.405Z,70.22
2023-05-20T23:47:39.868Z,72.39
2023-05-20T23:50:08.999Z,70.88
2023-05-20T23:52:37.486Z,70.40
2023-05-20T23:55:06.470Z,71.09
2023-05-20T23:57:34.738Z,71.42
